sensor_id;sensor_type;location;lat;lon;timestamp;pressure;altitude;pressure_sealevel;temperature;humidity
55687;BME280;41911;52.362;4.978;2023-01-30T00:01:28;101675.27;;;6.36;56.18
55687;BME280;41911;52.362;4.978;2023-01-30T00:02:00;101669.18;;;6.52;55.40
55687;BME280;41911;52.362;4.978;2023-01-30T00:02:31;101670.68;;;6.82;55.19
55687;BME280;41911;52.362;4.978;2023-01-30T00:03:02;101668.33;;;7.06;54.86
55687;BME280;41911;52.362;4.978;2023-01-30T00:03:33;101679.79;;;7.20;54.17
55687;BME280;41911;52.362;4.978;2023-01-30T00:04:04;101665.77;;;6.73;55.19
55687;BME280;41911;52.362;4.978;2023-01-30T00:04:35;101666.37;;;6.20;56.25
55687;BME280;41911;52.362;4.978;2023-01-30T00:05:06;101661.58;;;6.40;56.07
55687;BME280;41911;52.362;4.978;2023-01-30T00:05:37;101650.00;;;6.52;55.90
55687;BME280;41911;52.362;4.978;2023-01-30T00:06:09;101654.59;;;6.91;55.71
55687;BME280;41911;52.362;4.978;2023-01-30T00:06:40;101664.96;;;6.50;55.88
55687;BME280;41911;52.362;4.978;2023-01-30T00:07:11;101657.11;;;6.50;55.75
55687;BME280;41911;52.362;4.978;2023-01-30T00:07:42;101650.33;;;6.41;55.98
55687;BME280;41911;52.362;4.978;2023-01-30T00:08:13;101658.34;;;6.50;56.36
55687;BME280;41911;52.362;4.978;2023-01-30T00:08:45;101662.64;;;6.31;56.66
55687;BME280;41911;52.362;4.978;2023-01-30T00:09:16;101659.60;;;6.20;57.28
55687;BME280;41911;52.362;4.978;2023-01-30T00:09:47;101655.94;;;5.94;57.10
55687;BME280;41911;52.362;4.978;2023-01-30T00:10:18;101657.43;;;6.14;56.68
55687;BME280;41911;52.362;4.978;2023-01-30T00:10:49;101657.02;;;6.66;55.98
55687;BME280;41911;52.362;4.978;2023-01-30T00:11:21;101657.13;;;6.29;56.79
55687;BME280;41911;52.362;4.978;2023-01-30T00:11:52;101655.24;;;6.49;56.69
55687;BME280;41911;52.362;4.978;2023-01-30T00:12:23;101659.32;;;6.52;56.42
55687;BME280;41911;52.362;4.978;2023-01-30T00:12:54;101662.48;;;5.80;57.74
55687;BME280;41911;52.362;4.978;2023-01-30T00:13:26;101659.69;;;6.06;57.06
55687;BME280;41911;52.362;4.978;2023-01-30T00:13:57;101663.79;;;6.15;57.75
55687;BME280;41911;52.362;4.978;2023-01-30T00:14:29;101653.12;;;5.98;57.07
55687;BME280;41911;52.362;4.978;2023-01-30T00:15:01;101659.68;;;6.40;56.82
55687;BME280;41911;52.362;4.978;2023-01-30T00:15:32;101654.50;;;6.16;56.83
55687;BME280;41911;52.362;4.978;2023-01-30T00:16:03;101650.14;;;5.70;57.30
55687;BME280;41911;52.362;4.978;2023-01-30T00:16:35;101643.49;;;6.00;57.29
55687;BME280;41911;52.362;4.978;2023-01-30T00:17:06;101655.65;;;6.10;57.01
55687;BME280;41911;52.362;4.978;2023-01-30T00:17:37;101651.58;;;6.21;57.09
55687;BME280;41911;52.362;4.978;2023-01-30T00:18:08;101644.21;;;5.88;57.00
55687;BME280;41911;52.362;4.978;2023-01-30T00:18:40;101638.27;;;5.53;57.47
55687;BME280;41911;52.362;4.978;2023-01-30T00:19:11;101648.31;;;5.77;57.66
55687;BME280;41911;52.362;4.978;2023-01-30T00:19:42;101648.28;;;5.93;57.59
55687;BME280;41911;52.362;4.978;2023-01-30T00:20:13;101646.22;;;5.97;57.95
55687;BME280;41911;52.362;4.978;2023-01-30T00:20:44;101637.60;;;5.46;58.38
55687;BME280;41911;52.362;4.978;2023-01-30T00:21:15;101641.54;;;5.21;58.49
55687;BME280;41911;52.362;4.978;2023-01-30T00:21:46;101632.14;;;5.86;57.90
55687;BME280;41911;52.362;4.978;2023-01-30T00:22:17;101635.62;;;5.82;57.84
55687;BME280;41911;52.362;4.978;2023-01-30T00:22:48;101636.83;;;6.06;57.36
55687;BME280;41911;52.362;4.978;2023-01-30T00:23:19;101639.11;;;6.63;57.02
55687;BME280;41911;52.362;4.978;2023-01-30T00:23:50;101632.87;;;5.98;57.64
55687;BME280;41911;52.362;4.978;2023-01-30T00:24:21;101647.33;;;6.65;57.09
55687;BME280;41911;52.362;4.978;2023-01-30T00:24:52;101641.10;;;6.04;56.86
55687;BME280;41911;52.362;4.978;2023-01-30T00:25:23;101632.33;;;6.68;56.19
55687;BME280;41911;52.362;4.978;2023-01-30T00:25:54;101639.71;;;6.25;56.31
55687;BME280;41911;52.362;4.978;2023-01-30T00:26:25;101628.08;;;6.38;56.55
55687;BME280;41911;52.362;4.978;2023-01-30T00:26:56;101628.63;;;6.39;56.29
55687;BME280;41911;52.362;4.978;2023-01-30T00:27:29;101627.92;;;6.05;56.63
55687;BME280;41911;52.362;4.978;2023-01-30T00:28:00;101632.06;;;5.88;57.05
55687;BME280;41911;52.362;4.978;2023-01-30T00:28:32;101626.53;;;6.18;57.26
55687;BME280;41911;52.362;4.978;2023-01-30T00:29:03;101622.83;;;6.24;56.59
55687;BME280;41911;52.362;4.978;2023-01-30T00:29:34;101629.08;;;5.91;56.92
55687;BME280;41911;52.362;4.978;2023-01-30T00:30:06;101625.41;;;5.96;56.76
55687;BME280;41911;52.362;4.978;2023-01-30T00:30:37;101629.89;;;6.11;57.60
55687;BME280;41911;52.362;4.978;2023-01-30T00:31:08;101626.49;;;5.83;57.61
55687;BME280;41911;52.362;4.978;2023-01-30T00:31:39;101621.84;;;6.05;56.77
55687;BME280;41911;52.362;4.978;2023-01-30T00:32:10;101625.59;;;6.31;56.18
55687;BME280;41911;52.362;4.978;2023-01-30T00:32:41;101624.25;;;6.70;56.10
55687;BME280;41911;52.362;4.978;2023-01-30T00:33:12;101623.72;;;6.40;56.03
55687;BME280;41911;52.362;4.978;2023-01-30T00:33:43;101621.80;;;6.64;55.53
55687;BME280;41911;52.362;4.978;2023-01-30T00:34:15;101616.15;;;6.79;55.13
55687;BME280;41911;52.362;4.978;2023-01-30T00:34:45;101622.07;;;6.49;55.59
55687;BME280;41911;52.362;4.978;2023-01-30T00:35:16;101627.36;;;6.12;56.02
55687;BME280;41911;52.362;4.978;2023-01-30T00:35:50;101618.70;;;6.41;56.05
55687;BME280;41911;52.362;4.978;2023-01-30T00:36:22;101618.11;;;6.77;55.23
55687;BME280;41911;52.362;4.978;2023-01-30T00:36:53;101610.12;;;6.83;54.96
55687;BME280;41911;52.362;4.978;2023-01-30T00:37:24;101617.30;;;6.77;55.09
55687;BME280;41911;52.362;4.978;2023-01-30T00:37:56;101613.65;;;6.14;56.03
55687;BME280;41911;52.362;4.978;2023-01-30T00:38:27;101620.81;;;6.35;55.64
55687;BME280;41911;52.362;4.978;2023-01-30T00:38:58;101615.53;;;6.60;55.36
55687;BME280;41911;52.362;4.978;2023-01-30T00:39:31;101618.15;;;6.26;55.79
55687;BME280;41911;52.362;4.978;2023-01-30T00:40:03;101620.90;;;6.15;56.06
55687;BME280;41911;52.362;4.978;2023-01-30T00:40:34;101619.40;;;6.21;56.46
55687;BME280;41911;52.362;4.978;2023-01-30T00:41:05;101614.00;;;6.10;56.29
55687;BME280;41911;52.362;4.978;2023-01-30T00:41:36;101616.51;;;6.65;55.95
55687;BME280;41911;52.362;4.978;2023-01-30T00:42:08;101614.50;;;5.62;56.97
55687;BME280;41911;52.362;4.978;2023-01-30T00:42:39;101617.64;;;5.70;57.10
55687;BME280;41911;52.362;4.978;2023-01-30T00:43:12;101615.89;;;6.45;56.78
55687;BME280;41911;52.362;4.978;2023-01-30T00:43:43;101612.56;;;6.38;56.38
55687;BME280;41911;52.362;4.978;2023-01-30T00:44:14;101611.86;;;6.20;56.67
55687;BME280;41911;52.362;4.978;2023-01-30T00:44:45;101617.17;;;5.73;56.76
55687;BME280;41911;52.362;4.978;2023-01-30T00:45:16;101608.12;;;6.18;56.18
55687;BME280;41911;52.362;4.978;2023-01-30T00:45:47;101601.05;;;5.93;56.63
55687;BME280;41911;52.362;4.978;2023-01-30T00:46:23;101607.07;;;6.34;55.80
55687;BME280;41911;52.362;4.978;2023-01-30T00:46:55;101602.23;;;5.68;56.71
55687;BME280;41911;52.362;4.978;2023-01-30T00:47:26;101599.72;;;6.11;56.41
55687;BME280;41911;52.362;4.978;2023-01-30T00:47:59;101596.64;;;6.13;56.11
55687;BME280;41911;52.362;4.978;2023-01-30T00:48:31;101595.43;;;5.86;56.56
55687;BME280;41911;52.362;4.978;2023-01-30T00:49:02;101597.64;;;6.20;56.32
55687;BME280;41911;52.362;4.978;2023-01-30T00:49:34;101593.94;;;6.25;56.26
55687;BME280;41911;52.362;4.978;2023-01-30T00:50:06;101593.40;;;6.26;56.37
55687;BME280;41911;52.362;4.978;2023-01-30T00:50:37;101589.40;;;6.26;56.47
55687;BME280;41911;52.362;4.978;2023-01-30T00:51:08;101587.80;;;6.19;56.20
55687;BME280;41911;52.362;4.978;2023-01-30T00:51:39;101585.49;;;6.53;55.67
55687;BME280;41911;52.362;4.978;2023-01-30T00:52:10;101585.58;;;6.55;55.66
55687;BME280;41911;52.362;4.978;2023-01-30T00:52:42;101582.55;;;6.62;55.53
55687;BME280;41911;52.362;4.978;2023-01-30T00:53:14;101578.54;;;6.52;55.80
55687;BME280;41911;52.362;4.978;2023-01-30T00:53:45;101585.44;;;6.66;55.56
55687;BME280;41911;52.362;4.978;2023-01-30T00:54:16;101585.41;;;6.99;55.12
55687;BME280;41911;52.362;4.978;2023-01-30T00:54:47;101573.78;;;6.45;55.78
55687;BME280;41911;52.362;4.978;2023-01-30T00:55:18;101575.95;;;5.84;56.92
55687;BME280;41911;52.362;4.978;2023-01-30T00:55:51;101577.05;;;6.02;56.78
55687;BME280;41911;52.362;4.978;2023-01-30T00:56:22;101570.65;;;5.54;57.76
55687;BME280;41911;52.362;4.978;2023-01-30T00:56:53;101571.50;;;5.90;57.20
55687;BME280;41911;52.362;4.978;2023-01-30T00:57:24;101566.65;;;6.01;57.40
55687;BME280;41911;52.362;4.978;2023-01-30T00:57:55;101571.74;;;5.68;57.57
55687;BME280;41911;52.362;4.978;2023-01-30T00:58:26;101564.28;;;6.25;57.72
55687;BME280;41911;52.362;4.978;2023-01-30T00:58:57;101563.25;;;6.15;57.30
55687;BME280;41911;52.362;4.978;2023-01-30T00:59:28;101565.65;;;5.84;57.34
55687;BME280;41911;52.362;4.978;2023-01-30T00:59:59;101563.50;;;5.91;57.88
55687;BME280;41911;52.362;4.978;2023-01-30T01:00:30;101564.65;;;5.56;58.41
55687;BME280;41911;52.362;4.978;2023-01-30T01:01:01;101566.64;;;5.59;58.43
55687;BME280;41911;52.362;4.978;2023-01-30T01:01:32;101556.94;;;5.91;58.52
55687;BME280;41911;52.362;4.978;2023-01-30T01:02:03;101562.53;;;6.29;57.98
55687;BME280;41911;52.362;4.978;2023-01-30T01:02:34;101559.41;;;6.26;57.50
55687;BME280;41911;52.362;4.978;2023-01-30T01:03:05;101565.14;;;5.51;58.64
55687;BME280;41911;52.362;4.978;2023-01-30T01:03:37;101562.18;;;5.70;58.54
55687;BME280;41911;52.362;4.978;2023-01-30T01:04:08;101561.04;;;5.41;58.92
55687;BME280;41911;52.362;4.978;2023-01-30T01:04:39;101560.94;;;5.70;59.29
55687;BME280;41911;52.362;4.978;2023-01-30T01:05:10;101562.61;;;5.69;59.17
55687;BME280;41911;52.362;4.978;2023-01-30T01:05:41;101564.07;;;5.73;58.73
55687;BME280;41911;52.362;4.978;2023-01-30T01:06:12;101566.26;;;6.33;57.86
55687;BME280;41911;52.362;4.978;2023-01-30T01:06:43;101567.69;;;6.64;57.48
55687;BME280;41911;52.362;4.978;2023-01-30T01:07:14;101565.91;;;5.83;58.11
55687;BME280;41911;52.362;4.978;2023-01-30T01:07:45;101566.57;;;5.95;58.56
55687;BME280;41911;52.362;4.978;2023-01-30T01:08:16;101561.59;;;6.08;58.65
55687;BME280;41911;52.362;4.978;2023-01-30T01:08:47;101559.13;;;5.80;58.38
55687;BME280;41911;52.362;4.978;2023-01-30T01:09:18;101564.21;;;5.59;58.85
55687;BME280;41911;52.362;4.978;2023-01-30T01:09:49;101560.97;;;5.97;58.84
55687;BME280;41911;52.362;4.978;2023-01-30T01:10:21;101558.27;;;6.02;58.67
55687;BME280;41911;52.362;4.978;2023-01-30T01:10:52;101553.68;;;5.92;58.43
55687;BME280;41911;52.362;4.978;2023-01-30T01:11:23;101558.35;;;6.58;57.89
55687;BME280;41911;52.362;4.978;2023-01-30T01:11:54;101563.27;;;6.21;57.86
55687;BME280;41911;52.362;4.978;2023-01-30T01:12:25;101556.92;;;5.84;58.35
55687;BME280;41911;52.362;4.978;2023-01-30T01:12:57;101558.57;;;5.38;59.11
55687;BME280;41911;52.362;4.978;2023-01-30T01:13:29;101562.07;;;6.01;58.96
55687;BME280;41911;52.362;4.978;2023-01-30T01:14:01;101559.84;;;6.23;58.47
55687;BME280;41911;52.362;4.978;2023-01-30T01:14:33;101553.56;;;5.83;58.54
55687;BME280;41911;52.362;4.978;2023-01-30T01:15:05;101556.17;;;5.92;58.29
55687;BME280;41911;52.362;4.978;2023-01-30T01:15:37;101559.06;;;5.91;58.82
55687;BME280;41911;52.362;4.978;2023-01-30T01:16:08;101556.11;;;5.93;58.85
55687;BME280;41911;52.362;4.978;2023-01-30T01:16:39;101552.69;;;5.64;59.40
55687;BME280;41911;52.362;4.978;2023-01-30T01:17:10;101557.35;;;5.82;59.12
55687;BME280;41911;52.362;4.978;2023-01-30T01:17:41;101559.58;;;6.17;58.76
55687;BME280;41911;52.362;4.978;2023-01-30T01:18:12;101563.45;;;6.01;58.33
55687;BME280;41911;52.362;4.978;2023-01-30T01:18:43;101560.58;;;5.41;59.22
55687;BME280;41911;52.362;4.978;2023-01-30T01:19:14;101555.07;;;5.54;59.19
55687;BME280;41911;52.362;4.978;2023-01-30T01:19:45;101561.03;;;5.70;59.38
55687;BME280;41911;52.362;4.978;2023-01-30T01:20:17;101560.46;;;5.31;59.56
55687;BME280;41911;52.362;4.978;2023-01-30T01:20:48;101557.82;;;5.49;59.66
55687;BME280;41911;52.362;4.978;2023-01-30T01:21:20;101558.72;;;4.75;60.55
55687;BME280;41911;52.362;4.978;2023-01-30T01:21:51;101559.44;;;4.91;60.77
55687;BME280;41911;52.362;4.978;2023-01-30T01:22:22;101557.53;;;5.48;60.20
55687;BME280;41911;52.362;4.978;2023-01-30T01:22:54;101562.98;;;5.63;59.86
55687;BME280;41911;52.362;4.978;2023-01-30T01:23:25;101564.42;;;5.59;59.96
55687;BME280;41911;52.362;4.978;2023-01-30T01:23:58;101565.00;;;5.75;59.65
55687;BME280;41911;52.362;4.978;2023-01-30T01:24:29;101560.36;;;5.76;59.65
55687;BME280;41911;52.362;4.978;2023-01-30T01:25:00;101564.28;;;5.75;59.74
55687;BME280;41911;52.362;4.978;2023-01-30T01:25:33;101569.38;;;5.40;60.26
55687;BME280;41911;52.362;4.978;2023-01-30T01:26:04;101555.74;;;5.50;60.47
55687;BME280;41911;52.362;4.978;2023-01-30T01:26:37;101554.64;;;5.65;60.05
55687;BME280;41911;52.362;4.978;2023-01-30T01:27:08;101544.56;;;5.90;59.79
55687;BME280;41911;52.362;4.978;2023-01-30T01:27:39;101563.44;;;5.69;59.76
55687;BME280;41911;52.362;4.978;2023-01-30T01:28:10;101559.87;;;5.71;59.84
55687;BME280;41911;52.362;4.978;2023-01-30T01:28:41;101552.88;;;5.78;59.90
55687;BME280;41911;52.362;4.978;2023-01-30T01:29:13;101556.52;;;5.47;60.52
55687;BME280;41911;52.362;4.978;2023-01-30T01:29:44;101550.22;;;5.44;60.16
55687;BME280;41911;52.362;4.978;2023-01-30T01:30:16;101546.91;;;5.67;60.14
55687;BME280;41911;52.362;4.978;2023-01-30T01:30:47;101548.57;;;5.55;59.88
55687;BME280;41911;52.362;4.978;2023-01-30T01:31:18;101552.38;;;6.06;59.15
55687;BME280;41911;52.362;4.978;2023-01-30T01:31:49;101556.18;;;5.61;59.68
55687;BME280;41911;52.362;4.978;2023-01-30T01:32:21;101552.95;;;5.91;59.05
55687;BME280;41911;52.362;4.978;2023-01-30T01:32:52;101552.98;;;6.28;59.06
55687;BME280;41911;52.362;4.978;2023-01-30T01:33:25;101552.68;;;6.02;58.96
55687;BME280;41911;52.362;4.978;2023-01-30T01:33:57;101554.86;;;5.96;58.96
55687;BME280;41911;52.362;4.978;2023-01-30T01:34:28;101548.97;;;5.40;59.65
55687;BME280;41911;52.362;4.978;2023-01-30T01:34:58;101550.64;;;5.56;60.07
55687;BME280;41911;52.362;4.978;2023-01-30T01:35:29;101548.47;;;5.85;60.06
55687;BME280;41911;52.362;4.978;2023-01-30T01:36:03;101546.41;;;5.62;59.87
55687;BME280;41911;52.362;4.978;2023-01-30T01:36:34;101540.49;;;5.69;59.87
55687;BME280;41911;52.362;4.978;2023-01-30T01:37:05;101546.66;;;6.25;59.91
55687;BME280;41911;52.362;4.978;2023-01-30T01:37:37;101538.44;;;6.36;59.50
55687;BME280;41911;52.362;4.978;2023-01-30T01:38:09;101549.73;;;6.30;58.87
55687;BME280;41911;52.362;4.978;2023-01-30T01:38:41;101545.93;;;5.89;60.01
55687;BME280;41911;52.362;4.978;2023-01-30T01:39:11;101548.43;;;5.24;59.97
55687;BME280;41911;52.362;4.978;2023-01-30T01:39:42;101547.90;;;6.32;59.30
55687;BME280;41911;52.362;4.978;2023-01-30T01:40:17;101547.63;;;6.24;58.82
55687;BME280;41911;52.362;4.978;2023-01-30T01:40:48;101546.32;;;6.28;58.70
55687;BME280;41911;52.362;4.978;2023-01-30T01:41:19;101547.42;;;6.28;58.61
55687;BME280;41911;52.362;4.978;2023-01-30T01:41:50;101543.34;;;6.49;58.44
55687;BME280;41911;52.362;4.978;2023-01-30T01:42:24;101543.89;;;6.52;58.25
55687;BME280;41911;52.362;4.978;2023-01-30T01:42:55;101549.36;;;6.35;58.03
55687;BME280;41911;52.362;4.978;2023-01-30T01:43:28;101538.99;;;5.97;58.38
55687;BME280;41911;52.362;4.978;2023-01-30T01:44:04;101537.06;;;6.17;58.28
55687;BME280;41911;52.362;4.978;2023-01-30T01:45:00;101547.91;;;6.52;58.14
55687;BME280;41911;52.362;4.978;2023-01-30T01:45:32;101552.59;;;6.01;58.77
55687;BME280;41911;52.362;4.978;2023-01-30T01:46:11;101549.73;;;5.69;58.90
55687;BME280;41911;52.362;4.978;2023-01-30T01:46:50;101541.96;;;5.97;59.13
55687;BME280;41911;52.362;4.978;2023-01-30T01:47:23;101535.43;;;5.73;59.35
55687;BME280;41911;52.362;4.978;2023-01-30T01:47:59;101537.88;;;5.92;59.29
55687;BME280;41911;52.362;4.978;2023-01-30T01:48:35;101539.69;;;6.12;58.54
55687;BME280;41911;52.362;4.978;2023-01-30T01:49:13;101543.98;;;6.61;58.09
55687;BME280;41911;52.362;4.978;2023-01-30T01:49:45;101542.82;;;6.11;58.37
55687;BME280;41911;52.362;4.978;2023-01-30T01:50:21;101543.67;;;5.50;59.02
55687;BME280;41911;52.362;4.978;2023-01-30T01:50:56;101546.39;;;5.64;59.53
55687;BME280;41911;52.362;4.978;2023-01-30T01:51:35;101554.95;;;5.48;59.81
55687;BME280;41911;52.362;4.978;2023-01-30T01:52:10;101538.63;;;5.28;59.69
55687;BME280;41911;52.362;4.978;2023-01-30T01:52:43;101543.10;;;5.63;59.61
55687;BME280;41911;52.362;4.978;2023-01-30T01:53:19;101539.24;;;5.99;59.65
55687;BME280;41911;52.362;4.978;2023-01-30T01:53:57;101543.14;;;5.72;59.70
55687;BME280;41911;52.362;4.978;2023-01-30T01:54:34;101533.38;;;5.77;59.83
55687;BME280;41911;52.362;4.978;2023-01-30T01:55:09;101547.58;;;5.90;59.68
55687;BME280;41911;52.362;4.978;2023-01-30T01:55:41;101550.19;;;5.33;60.43
55687;BME280;41911;52.362;4.978;2023-01-30T01:56:13;101534.41;;;5.27;61.13
55687;BME280;41911;52.362;4.978;2023-01-30T01:56:48;101546.81;;;5.47;60.35
55687;BME280;41911;52.362;4.978;2023-01-30T01:57:24;101538.46;;;5.62;60.49
55687;BME280;41911;52.362;4.978;2023-01-30T01:58:02;101537.82;;;5.35;61.01
55687;BME280;41911;52.362;4.978;2023-01-30T01:58:40;101541.88;;;5.14;61.44
55687;BME280;41911;52.362;4.978;2023-01-30T01:59:17;101540.49;;;5.34;60.85
55687;BME280;41911;52.362;4.978;2023-01-30T01:59:55;101544.28;;;5.81;60.34
55687;BME280;41911;52.362;4.978;2023-01-30T02:00:32;101539.58;;;5.86;60.17
55687;BME280;41911;52.362;4.978;2023-01-30T02:01:03;101550.58;;;5.52;60.66
55687;BME280;41911;52.362;4.978;2023-01-30T02:01:35;101551.69;;;4.69;62.06
55687;BME280;41911;52.362;4.978;2023-01-30T02:02:09;101540.43;;;4.70;62.52
55687;BME280;41911;52.362;4.978;2023-01-30T02:02:44;101547.15;;;4.68;62.47
55687;BME280;41911;52.362;4.978;2023-01-30T02:03:22;101541.86;;;4.69;62.64
55687;BME280;41911;52.362;4.978;2023-01-30T02:03:57;101536.91;;;4.79;62.67
55687;BME280;41911;52.362;4.978;2023-01-30T02:04:30;101533.64;;;4.94;62.23
55687;BME280;41911;52.362;4.978;2023-01-30T02:05:02;101538.90;;;5.12;61.84
55687;BME280;41911;52.362;4.978;2023-01-30T02:05:36;101548.33;;;4.64;62.63
55687;BME280;41911;52.362;4.978;2023-01-30T02:06:09;101543.91;;;5.09;62.37
55687;BME280;41911;52.362;4.978;2023-01-30T02:06:41;101548.08;;;4.46;63.06
55687;BME280;41911;52.362;4.978;2023-01-30T02:07:13;101539.42;;;4.26;63.76
55687;BME280;41911;52.362;4.978;2023-01-30T02:07:51;101533.03;;;4.53;64.34
55687;BME280;41911;52.362;4.978;2023-01-30T02:08:28;101526.24;;;4.57;63.17
55687;BME280;41911;52.362;4.978;2023-01-30T02:09:04;101539.33;;;5.47;62.66
55687;BME280;41911;52.362;4.978;2023-01-30T02:09:37;101532.12;;;5.31;63.03
55687;BME280;41911;52.362;4.978;2023-01-30T02:10:12;101524.69;;;4.68;62.71
55687;BME280;41911;52.362;4.978;2023-01-30T02:10:52;101529.08;;;4.39;63.42
55687;BME280;41911;52.362;4.978;2023-01-30T02:11:32;101521.35;;;4.51;63.66
55687;BME280;41911;52.362;4.978;2023-01-30T02:12:09;101537.19;;;4.70;63.92
55687;BME280;41911;52.362;4.978;2023-01-30T02:12:41;101524.72;;;5.02;63.66
55687;BME280;41911;52.362;4.978;2023-01-30T02:13:13;101535.13;;;4.18;64.51
55687;BME280;41911;52.362;4.978;2023-01-30T02:13:44;101540.31;;;4.27;64.50
55687;BME280;41911;52.362;4.978;2023-01-30T02:14:17;101541.52;;;4.60;64.49
55687;BME280;41911;52.362;4.978;2023-01-30T02:14:50;101537.54;;;4.49;64.20
55687;BME280;41911;52.362;4.978;2023-01-30T02:15:21;101549.19;;;4.51;64.02
55687;BME280;41911;52.362;4.978;2023-01-30T02:15:54;101547.06;;;4.33;64.94
55687;BME280;41911;52.362;4.978;2023-01-30T02:16:25;101546.29;;;4.82;64.32
55687;BME280;41911;52.362;4.978;2023-01-30T02:16:56;101535.28;;;4.92;64.15
55687;BME280;41911;52.362;4.978;2023-01-30T02:17:27;101538.28;;;4.98;63.56
55687;BME280;41911;52.362;4.978;2023-01-30T02:17:58;101535.75;;;5.01;63.07
55687;BME280;41911;52.362;4.978;2023-01-30T02:18:32;101534.02;;;5.19;63.01
55687;BME280;41911;52.362;4.978;2023-01-30T02:19:12;101537.71;;;4.88;62.90
55687;BME280;41911;52.362;4.978;2023-01-30T02:19:59;101537.29;;;4.99;62.30
55687;BME280;41911;52.362;4.978;2023-01-30T02:20:47;101533.55;;;5.35;61.86
55687;BME280;41911;52.362;4.978;2023-01-30T02:22:40;101551.97;;;5.57;61.76
55687;BME280;41911;52.362;4.978;2023-01-30T02:23:40;101533.94;;;5.28;61.48
55687;BME280;41911;52.362;4.978;2023-01-30T02:24:47;101532.95;;;4.88;62.40
55687;BME280;41911;52.362;4.978;2023-01-30T02:25:38;101531.60;;;5.62;61.20
55687;BME280;41911;52.362;4.978;2023-01-30T02:26:50;101530.35;;;5.47;60.92
55687;BME280;41911;52.362;4.978;2023-01-30T02:27:52;101527.48;;;5.45;61.36
55687;BME280;41911;52.362;4.978;2023-01-30T02:29:09;101515.55;;;5.42;61.09
55687;BME280;41911;52.362;4.978;2023-01-30T02:30:40;101521.43;;;5.31;61.13
55687;BME280;41911;52.362;4.978;2023-01-30T02:31:21;101525.69;;;4.91;61.86
55687;BME280;41911;52.362;4.978;2023-01-30T02:31:56;101526.00;;;5.40;61.28
55687;BME280;41911;52.362;4.978;2023-01-30T02:32:37;101521.18;;;5.04;61.31
55687;BME280;41911;52.362;4.978;2023-01-30T02:33:18;101522.01;;;5.03;61.16
55687;BME280;41911;52.362;4.978;2023-01-30T02:34:09;101519.72;;;5.76;60.62
55687;BME280;41911;52.362;4.978;2023-01-30T02:34:47;101516.17;;;5.06;61.48
55687;BME280;41911;52.362;4.978;2023-01-30T02:35:27;101527.95;;;5.61;60.85
55687;BME280;41911;52.362;4.978;2023-01-30T02:36:09;101524.28;;;5.11;61.68
55687;BME280;41911;52.362;4.978;2023-01-30T02:36:54;101519.81;;;5.41;60.75
55687;BME280;41911;52.362;4.978;2023-01-30T02:37:46;101518.09;;;5.86;60.22
55687;BME280;41911;52.362;4.978;2023-01-30T02:38:33;101525.40;;;5.56;60.49
55687;BME280;41911;52.362;4.978;2023-01-30T02:39:25;101524.50;;;5.03;61.28
55687;BME280;41911;52.362;4.978;2023-01-30T02:40:16;101535.59;;;4.99;61.95
55687;BME280;41911;52.362;4.978;2023-01-30T02:40:54;101524.78;;;5.50;61.00
55687;BME280;41911;52.362;4.978;2023-01-30T02:41:35;101535.82;;;4.80;62.01
55687;BME280;41911;52.362;4.978;2023-01-30T02:42:16;101543.00;;;5.18;61.65
55687;BME280;41911;52.362;4.978;2023-01-30T02:43:00;101542.85;;;4.90;62.07
55687;BME280;41911;52.362;4.978;2023-01-30T02:43:41;101535.99;;;5.13;61.73
55687;BME280;41911;52.362;4.978;2023-01-30T02:44:20;101534.34;;;4.50;62.73
55687;BME280;41911;52.362;4.978;2023-01-30T02:45:00;101530.32;;;5.26;61.45
55687;BME280;41911;52.362;4.978;2023-01-30T02:45:41;101531.16;;;5.30;61.60
55687;BME280;41911;52.362;4.978;2023-01-30T02:46:16;101540.70;;;4.98;61.86
55687;BME280;41911;52.362;4.978;2023-01-30T02:46:52;101546.19;;;4.96;61.85
55687;BME280;41911;52.362;4.978;2023-01-30T02:47:31;101542.35;;;4.87;62.24
55687;BME280;41911;52.362;4.978;2023-01-30T02:48:08;101537.77;;;5.47;61.19
55687;BME280;41911;52.362;4.978;2023-01-30T02:48:48;101536.44;;;5.82;60.65
55687;BME280;41911;52.362;4.978;2023-01-30T02:49:28;101532.85;;;5.11;61.44
55687;BME280;41911;52.362;4.978;2023-01-30T02:50:09;101533.16;;;5.16;61.59
55687;BME280;41911;52.362;4.978;2023-01-30T02:50:45;101542.13;;;5.63;61.54
55687;BME280;41911;52.362;4.978;2023-01-30T02:51:28;101545.05;;;5.81;60.70
55687;BME280;41911;52.362;4.978;2023-01-30T02:52:00;101541.74;;;5.32;61.15
55687;BME280;41911;52.362;4.978;2023-01-30T02:52:32;101539.21;;;4.68;62.26
55687;BME280;41911;52.362;4.978;2023-01-30T02:53:04;101542.36;;;5.18;61.48
55687;BME280;41911;52.362;4.978;2023-01-30T02:53:36;101540.72;;;4.55;62.63
55687;BME280;41911;52.362;4.978;2023-01-30T02:54:10;101542.92;;;4.64;62.38
55687;BME280;41911;52.362;4.978;2023-01-30T02:54:41;101539.29;;;4.76;62.25
55687;BME280;41911;52.362;4.978;2023-01-30T02:55:19;101535.36;;;5.37;61.48
55687;BME280;41911;52.362;4.978;2023-01-30T02:55:50;101540.61;;;5.50;60.95
55687;BME280;41911;52.362;4.978;2023-01-30T02:56:21;101539.14;;;5.59;60.61
55687;BME280;41911;52.362;4.978;2023-01-30T02:56:56;101538.53;;;5.38;60.98
55687;BME280;41911;52.362;4.978;2023-01-30T02:57:27;101534.03;;;5.68;60.76
55687;BME280;41911;52.362;4.978;2023-01-30T02:57:59;101520.99;;;5.78;60.40
55687;BME280;41911;52.362;4.978;2023-01-30T02:58:37;101528.87;;;5.49;60.62
55687;BME280;41911;52.362;4.978;2023-01-30T02:59:10;101513.35;;;5.78;60.37
55687;BME280;41911;52.362;4.978;2023-01-30T02:59:47;101512.42;;;5.84;60.10
55687;BME280;41911;52.362;4.978;2023-01-30T03:00:23;101516.98;;;5.97;59.84
55687;BME280;41911;52.362;4.978;2023-01-30T03:01:38;101517.10;;;5.42;60.37
55687;BME280;41911;52.362;4.978;2023-01-30T03:02:26;101521.88;;;5.92;60.04
55687;BME280;41911;52.362;4.978;2023-01-30T03:03:17;101532.93;;;5.50;60.39
55687;BME280;41911;52.362;4.978;2023-01-30T03:04:08;101528.76;;;5.30;60.52
55687;BME280;41911;52.362;4.978;2023-01-30T03:04:57;101528.50;;;5.32;60.38